This is the latest recevied weather packets stored in our database for station/object EA3CTN-13. If no packets are shown the sender has not sent any weather packets the latest 10 day(s).
| Time | Temp. | Humidity | Pressure | Rain* | Wind** | Luminosity | Snow |
|---|---|---|---|---|---|---|---|
| 1787762301 | 33.33° C | 46% | 1011.1 hPa | - | - | - | - |
| 1787761821 | 34.44° C | 43% | 1011.3 hPa | - | - | - | - |
| 1787761341 | 34.44° C | 43% | 1011.2 hPa | - | - | - | - |
| 1787760861 | 35° C | 43% | 1011.2 hPa | - | - | - | - |
| 1787760381 | 33.33° C | 46% | 1011.1 hPa | - | - | - | - |
| 1787759901 | 32.22° C | 51% | 1011.4 hPa | - | - | - | - |
| 1787759421 | 31.67° C | 51% | 1011.3 hPa | - | - | - | - |
| 1787758941 | 31.67° C | 53% | 1011.4 hPa | - | - | - | - |
| 1787758462 | 31.11° C | 53% | 1011.6 hPa | - | - | - | - |
| 1787757981 | 31.11° C | 54% | 1011.8 hPa | - | - | - | - |
| 1787757505 | 31.11° C | 53% | 1011.7 hPa | - | - | - | - |
| 1787757021 | 31.11° C | 53% | 1011.8 hPa | - | - | - | - |
| 1787756541 | 31.11° C | 52% | 1011.8 hPa | - | - | - | - |
| 1787756061 | 31.11° C | 50% | 1011.7 hPa | - | - | - | - |
| 1787755581 | 30.56° C | 50% | 1011.8 hPa | - | - | - | - |
| 1787755101 | 30.56° C | 51% | 1012.1 hPa | - | - | - | - |
| 1787754621 | 30.56° C | 51% | 1012.2 hPa | - | - | - | - |
| 1787754141 | 30.56° C | 51% | 1012.3 hPa | - | - | - | - |
| 1787753661 | 30.56° C | 51% | 1012.3 hPa | - | - | - | - |
| 1787753181 | 30.56° C | 52% | 1012.3 hPa | - | - | - | - |
| 1787752701 | 30.56° C | 52% | 1012.5 hPa | - | - | - | - |
| 1787752221 | 30.56° C | 51% | 1012.5 hPa | - | - | - | - |
| 1787751741 | 30.56° C | 50% | 1012.4 hPa | - | - | - | - |
| 1787751261 | 30.56° C | 50% | 1011.9 hPa | - | - | - | - |
| 1787750781 | 30.56° C | 50% | 1011.9 hPa | - | - | - | - |
* Rain since midnight (hover to see other rain measurements)
** Current wind speed in m/s (hover to see current wind gust speed)